Time;durP1;ratioP1;P1;durP2;ratioP2;P2;SDS_P1;SDS_P2;PMS_P1;PMS_P2;Temp;Humidity;BMP_temperature;BMP_pressure;BME280_temperature;BME280_humidity;BME280_pressure;Samples;Min_cycle;Max_cycle;Signal;HPM_P1;HPM_P2
2022/12/12 00:01:11;;;;;;;;;;;0.30;99.90;;;;;;5094524;28;20361;-66
2022/12/12 00:03:36;;;;;;;;;;;0.30;99.90;;;;;;5094467;28;19908;-66
2022/12/12 00:06:03;;;;;;;;;;;0.30;99.90;;;;;;5094120;28;19915;-67
2022/12/12 00:08:29;;;;;;;;;;;0.30;99.90;;;;;;5094429;28;19935;-66
2022/12/12 00:10:54;;;;;;;;;;;0.30;99.90;;;;;;5094378;28;20362;-66
2022/12/12 00:13:20;;;;;;;;;;;0.30;99.90;;;;;;5094334;28;19908;-66
2022/12/12 00:15:45;;;;;;;;;;;0.30;99.90;;;;;;5094081;28;19908;-66
2022/12/12 00:18:11;;;;;;;;;;;0.30;99.90;;;;;;5094398;28;20286;-66
2022/12/12 00:20:36;;;;;;;;;;;0.30;99.90;;;;;;5075881;28;20004;-66
2022/12/12 00:23:02;;;;;;;;;;;0.30;99.90;;;;;;5094239;28;19915;-66
2022/12/12 00:25:27;;;;;;;;;;;0.30;99.90;;;;;;5094169;28;19914;-66
2022/12/12 00:27:53;;;;;;;;;;;0.30;99.90;;;;;;5093970;28;19999;-66
2022/12/12 00:30:18;;;;;;;;;;;0.30;99.90;;;;;;5093825;28;20398;-66
2022/12/12 00:32:44;;;;;;;;;;;0.30;99.90;;;;;;5093810;28;19908;-66
2022/12/12 00:35:09;;;;;;;;;;;0.20;99.90;;;;;;5093623;28;19912;-66
2022/12/12 00:37:34;;;;;;;;;;;0.20;99.90;;;;;;5093518;28;19999;-66
2022/12/12 00:40:00;;;;;;;;;;;0.20;99.90;;;;;;5093749;28;20362;-66
2022/12/12 00:42:26;;;;;;;;;;;0.10;99.90;;;;;;5094029;28;20358;-66
2022/12/12 00:44:51;;;;;;;;;;;0.20;99.90;;;;;;5075675;28;19915;-66
2022/12/12 00:47:17;;;;;;;;;;;0.20;99.90;;;;;;5093955;28;19964;-66
2022/12/12 00:49:42;;;;;;;;;;;0.20;99.90;;;;;;5093940;28;19985;-66
2022/12/12 00:52:08;;;;;;;;;;;0.20;99.90;;;;;;5093631;28;20358;-66
2022/12/12 00:54:33;;;;;;;;;;;0.10;99.90;;;;;;5093842;28;19908;-66
2022/12/12 00:56:59;;;;;;;;;;;0.10;99.90;;;;;;5093863;28;19912;-66
2022/12/12 00:59:24;;;;;;;;;;;0.20;99.90;;;;;;5093658;28;20451;-67
2022/12/12 01:01:50;;;;;;;;;;;0.20;99.90;;;;;;5093517;28;19912;-66
2022/12/12 01:04:15;;;;;;;;;;;0.20;99.90;;;;;;5093763;28;19912;-66
2022/12/12 01:06:41;;;;;;;;;;;0.20;99.90;;;;;;5075333;28;19908;-66
2022/12/12 01:09:06;;;;;;;;;;;0.20;99.90;;;;;;5093450;28;19908;-65
2022/12/12 01:11:32;;;;;;;;;;;0.20;99.90;;;;;;5093722;28;19915;-66
2022/12/12 01:13:57;;;;;;;;;;;0.20;99.90;;;;;;5093681;28;19908;-66
2022/12/12 01:16:23;;;;;;;;;;;0.20;99.90;;;;;;5093404;28;19908;-66
2022/12/12 01:18:48;;;;;;;;;;;0.20;99.90;;;;;;5093587;28;20275;-66
2022/12/12 01:21:15;;;;;;;;;;;0.20;99.90;;;;;;5093427;28;19915;-66
2022/12/12 01:23:41;;;;;;;;;;;0.20;99.90;;;;;;5093328;28;20377;-66
2022/12/12 01:26:08;;;;;;;;;;;0.30;99.90;;;;;;5093317;28;19909;-66
2022/12/12 01:28:33;;;;;;;;;;;0.20;99.90;;;;;;5093541;28;20282;-66
2022/12/12 01:30:59;;;;;;;;;;;0.20;99.90;;;;;;5093511;28;19908;-66
2022/12/12 01:33:24;;;;;;;;;;;0.20;99.90;;;;;;5093326;28;19940;-66
2022/12/12 01:35:50;;;;;;;;;;;0.30;99.90;;;;;;5093204;28;19912;-66
2022/12/12 01:38:15;;;;;;;;;;;0.30;99.90;;;;;;5093057;28;20392;-66
2022/12/12 01:40:41;;;;;;;;;;;0.30;99.90;;;;;;5093183;28;19908;-66
2022/12/12 01:43:11;;;;;;;;;;;0.30;99.90;;;;;;5093407;28;20020;-66
2022/12/12 01:45:56;;;;;;;;;;;0.30;99.90;;;;;;5094437;28;19931;-66
2022/12/12 01:48:23;;;;;;;;;;;0.30;99.90;;;;;;5096739;28;19908;-66
2022/12/12 01:50:49;;;;;;;;;;;0.30;99.90;;;;;;5096744;28;19915;-66
2022/12/12 01:53:16;;;;;;;;;;;0.30;99.90;;;;;;5096711;28;19908;-66
2022/12/12 01:55:41;;;;;;;;;;;0.30;99.90;;;;;;5096958;28;20014;-66
2022/12/12 01:58:07;;;;;;;;;;;0.30;99.90;;;;;;5096513;28;20069;-66
2022/12/12 02:00:33;;;;;;;;;;;0.30;99.90;;;;;;5096504;28;19908;-66
2022/12/12 02:02:58;;;;;;;;;;;0.30;99.90;;;;;;5096790;28;19953;-66
2022/12/12 02:05:44;;;;;;;;;;;0.30;99.90;;;;;;5096505;28;19908;-66
2022/12/12 02:08:11;;;;;;;;;;;0.30;99.90;;;;;;5096304;28;19908;-66
2022/12/12 02:10:37;;;;;;;;;;;0.30;99.90;;;;;;5078674;28;19909;-66
2022/12/12 02:13:05;;;;;;;;;;;0.30;99.90;;;;;;5096609;28;19915;-66
2022/12/12 02:15:35;;;;;;;;;;;0.30;99.90;;;;;;5096548;28;19956;-66
2022/12/12 02:18:08;;;;;;;;;;;0.30;99.90;;;;;;5096433;28;19912;-66
2022/12/12 02:20:39;;;;;;;;;;;0.30;99.90;;;;;;5096457;28;20361;-66
2022/12/12 02:23:25;;;;;;;;;;;0.30;99.90;;;;;;5096409;28;20423;-66
2022/12/12 02:26:06;;;;;;;;;;;0.30;99.90;;;;;;5095973;28;19973;-66
2022/12/12 02:28:51;;;;;;;;;;;0.30;99.90;;;;;;5096048;28;19995;-66
2022/12/12 02:31:21;;;;;;;;;;;0.30;99.90;;;;;;5095984;28;19957;-66
2022/12/12 02:33:52;;;;;;;;;;;0.30;99.90;;;;;;5096212;28;19908;-66
2022/12/12 02:36:22;;;;;;;;;;;0.30;99.90;;;;;;5096142;28;19908;-67
2022/12/12 02:39:07;;;;;;;;;;;0.30;99.90;;;;;;5095691;28;19924;-66
2022/12/12 02:41:36;;;;;;;;;;;0.30;99.90;;;;;;5095652;28;19940;-66
2022/12/12 02:44:21;;;;;;;;;;;0.30;99.90;;;;;;5095744;28;19947;-66
2022/12/12 02:46:51;;;;;;;;;;;0.30;99.90;;;;;;5095482;28;20007;-66
2022/12/12 02:49:21;;;;;;;;;;;0.30;99.90;;;;;;5095632;28;19912;-66
2022/12/12 02:51:47;;;;;;;;;;;0.30;99.90;;;;;;5095881;28;19908;-66
2022/12/12 02:54:15;;;;;;;;;;;0.30;99.90;;;;;;5095788;28;19916;-66
2022/12/12 02:56:42;;;;;;;;;;;0.30;99.90;;;;;;5095490;28;19912;-66
2022/12/12 02:59:09;;;;;;;;;;;0.30;99.90;;;;;;5095630;28;19958;-66
2022/12/12 03:01:54;;;;;;;;;;;0.30;99.90;;;;;;5095647;28;19931;-66
2022/12/12 03:07:46;;;;;;;;;;;0.30;99.90;;;;;;5095061;28;19912;-66
2022/12/12 03:10:12;;;;;;;;;;;0.30;99.90;;;;;;5095084;28;19984;-65
2022/12/12 03:15:28;;;;;;;;;;;0.20;99.90;;;;;;5091345;27;19919;-64
2022/12/12 03:18:14;;;;;;;;;;;0.20;99.90;;;;;;5091441;28;20378;-65
2022/12/12 03:20:44;;;;;;;;;;;0.20;99.90;;;;;;5091105;28;19915;-65
2022/12/12 03:23:13;;;;;;;;;;;0.20;99.90;;;;;;5091345;28;20413;-65
2022/12/12 03:25:59;;;;;;;;;;;0.20;99.90;;;;;;5091304;28;19935;-64
2022/12/12 03:28:29;;;;;;;;;;;0.30;99.90;;;;;;5091002;28;19914;-64
2022/12/12 03:30:56;;;;;;;;;;;0.20;99.90;;;;;;5091171;28;20416;-65
2022/12/12 03:33:28;;;;;;;;;;;0.20;99.90;;;;;;5091089;28;19912;-64
2022/12/12 03:36:13;;;;;;;;;;;0.20;99.90;;;;;;5090871;28;19947;-65
2022/12/12 03:38:41;;;;;;;;;;;0.20;99.90;;;;;;5090847;28;19938;-65
2022/12/12 03:41:10;;;;;;;;;;;0.20;99.90;;;;;;5089467;28;19908;-64
2022/12/12 03:43:39;;;;;;;;;;;0.20;99.90;;;;;;5090725;28;19915;-64
2022/12/12 03:46:08;;;;;;;;;;;0.20;99.90;;;;;;5090868;28;20375;-65
2022/12/12 03:48:36;;;;;;;;;;;0.20;99.90;;;;;;5090867;28;19962;-64
2022/12/12 03:51:07;;;;;;;;;;;0.20;99.90;;;;;;5090536;28;20393;-65
2022/12/12 03:53:35;;;;;;;;;;;0.20;99.90;;;;;;5090425;28;19919;-65
2022/12/12 03:56:04;;;;;;;;;;;0.20;99.90;;;;;;5090736;28;20003;-65
2022/12/12 03:58:36;;;;;;;;;;;0.20;99.90;;;;;;5090417;28;20013;-65
2022/12/12 04:01:06;;;;;;;;;;;0.20;99.90;;;;;;5090358;28;20275;-64
2022/12/12 04:03:39;;;;;;;;;;;0.20;99.90;;;;;;5090550;28;19940;-64
2022/12/12 04:06:28;;;;;;;;;;;0.20;99.90;;;;;;5090259;28;19915;-64
2022/12/12 04:14:48;;;;;;;;;;;0.10;99.90;;;;;;5103730;28;19928;-64
2022/12/12 04:17:16;;;;;;;;;;;0.10;99.90;;;;;;5110277;28;19908;-64
2022/12/12 04:25:31;;;;;;;;;;;0.10;99.90;;;;;;5103291;28;20373;-64
2022/12/12 04:28:00;;;;;;;;;;;0.10;99.90;;;;;;5096873;28;20429;-64
2022/12/12 04:30:28;;;;;;;;;;;0.10;99.90;;;;;;5096579;28;19908;-64
2022/12/12 04:33:02;;;;;;;;;;;0.10;99.90;;;;;;5096730;28;19941;-64
2022/12/12 04:35:31;;;;;;;;;;;0.10;99.90;;;;;;5096468;28;19909;-65
2022/12/12 04:37:59;;;;;;;;;;;0.10;99.90;;;;;;5096433;28;20333;-65
2022/12/12 04:40:26;;;;;;;;;;;0.10;99.90;;;;;;5096658;28;19912;-64
2022/12/12 04:42:56;;;;;;;;;;;0.00;99.90;;;;;;5096607;28;20391;-64
2022/12/12 04:45:23;;;;;;;;;;;0.00;99.90;;;;;;5078484;28;19908;-65
2022/12/12 04:47:50;;;;;;;;;;;0.00;99.90;;;;;;5096504;28;19935;-65
2022/12/12 04:50:17;;;;;;;;;;;0.00;99.90;;;;;;5096532;28;20382;-64
2022/12/12 04:52:43;;;;;;;;;;;0.00;99.90;;;;;;5096425;28;19937;-65
2022/12/12 04:55:15;;;;;;;;;;;0.00;99.90;;;;;;5096039;28;19919;-65
2022/12/12 04:57:42;;;;;;;;;;;0.00;99.90;;;;;;5096218;28;20357;-64
2022/12/12 05:00:09;;;;;;;;;;;0.00;99.90;;;;;;5096307;28;20319;-65
2022/12/12 05:02:38;;;;;;;;;;;0.00;99.90;;;;;;5077905;28;20270;-64
2022/12/12 05:05:18;;;;;;;;;;;0.00;99.90;;;;;;5095908;28;20285;-64
2022/12/12 05:07:49;;;;;;;;;;;0.00;99.90;;;;;;5095864;28;19916;-64
2022/12/12 05:10:16;;;;;;;;;;;-0.10;99.90;;;;;;5096093;28;19916;-64
2022/12/12 05:12:44;;;;;;;;;;;-0.10;99.90;;;;;;5095731;28;20014;-65
2022/12/12 05:15:10;;;;;;;;;;;-0.10;99.90;;;;;;5095485;28;19975;-64
2022/12/12 05:17:40;;;;;;;;;;;0.00;99.90;;;;;;5095693;28;19916;-65
2022/12/12 05:20:06;;;;;;;;;;;0.00;99.90;;;;;;5095861;28;19912;-64
2022/12/12 05:22:31;;;;;;;;;;;0.00;99.90;;;;;;5095812;28;19991;-64
2022/12/12 05:24:57;;;;;;;;;;;0.00;99.90;;;;;;5095793;28;19908;-64
2022/12/12 05:27:22;;;;;;;;;;;0.00;99.90;;;;;;5095453;28;19957;-64
2022/12/12 05:29:47;;;;;;;;;;;0.00;99.90;;;;;;5095434;28;19912;-65
2022/12/12 05:32:13;;;;;;;;;;;0.10;99.90;;;;;;5095603;28;19908;-65
2022/12/12 05:34:38;;;;;;;;;;;0.10;99.90;;;;;;5095479;28;20354;-64
2022/12/12 05:37:04;;;;;;;;;;;0.00;99.90;;;;;;5094289;28;20289;-67
2022/12/12 05:39:30;;;;;;;;;;;0.10;99.90;;;;;;5095209;28;19958;-67
2022/12/12 05:41:55;;;;;;;;;;;0.00;99.90;;;;;;5095158;28;19915;-66
2022/12/12 05:44:21;;;;;;;;;;;0.00;99.90;;;;;;5095235;28;19908;-66
2022/12/12 05:46:46;;;;;;;;;;;0.00;99.90;;;;;;5095432;28;19908;-66
2022/12/12 05:49:11;;;;;;;;;;;0.00;99.90;;;;;;5095295;28;19943;-67
2022/12/12 05:51:37;;;;;;;;;;;0.00;99.90;;;;;;5094989;28;19911;-67
2022/12/12 05:54:02;;;;;;;;;;;0.00;99.90;;;;;;5095123;28;19919;-66
2022/12/12 05:56:28;;;;;;;;;;;0.00;99.90;;;;;;5095192;28;19919;-66
2022/12/12 05:58:53;;;;;;;;;;;0.00;99.90;;;;;;5094940;28;19915;-66
2022/12/12 06:01:19;;;;;;;;;;;0.00;99.90;;;;;;5094821;28;19912;-66
2022/12/12 06:03:44;;;;;;;;;;;0.00;99.90;;;;;;5094794;28;19915;-64
2022/12/12 06:06:10;;;;;;;;;;;0.00;99.90;;;;;;5095001;28;19991;-64
2022/12/12 06:08:36;;;;;;;;;;;0.00;99.90;;;;;;5076890;28;20369;-64
2022/12/12 06:11:05;;;;;;;;;;;0.00;99.90;;;;;;5094917;28;19944;-66
2022/12/12 06:13:31;;;;;;;;;;;0.00;99.90;;;;;;5094521;28;19959;-66
2022/12/12 06:15:56;;;;;;;;;;;0.00;99.90;;;;;;5094831;28;20370;-66
2022/12/12 06:18:21;;;;;;;;;;;0.00;99.90;;;;;;5094589;28;20381;-64
2022/12/12 06:20:47;;;;;;;;;;;0.00;99.90;;;;;;5094497;28;20285;-66
2022/12/12 06:23:12;;;;;;;;;;;0.00;99.90;;;;;;5094688;28;19987;-64
2022/12/12 06:25:38;;;;;;;;;;;0.00;99.90;;;;;;5094364;28;19911;-66
2022/12/12 06:28:03;;;;;;;;;;;0.00;99.90;;;;;;5094286;28;20353;-64
2022/12/12 06:30:29;;;;;;;;;;;0.00;99.90;;;;;;5094525;28;19908;-64
2022/12/12 06:32:54;;;;;;;;;;;0.00;99.90;;;;;;5094525;28;19915;-67
2022/12/12 06:35:20;;;;;;;;;;;0.00;99.90;;;;;;5094361;28;19912;-67
2022/12/12 06:37:47;;;;;;;;;;;0.00;99.90;;;;;;5076153;28;20052;-66
2022/12/12 06:40:12;;;;;;;;;;;-0.10;99.90;;;;;;5094341;28;19908;-64
2022/12/12 06:42:38;;;;;;;;;;;0.00;99.90;;;;;;5094317;28;19918;-67
2022/12/12 06:45:04;;;;;;;;;;;0.00;99.90;;;;;;5094245;28;19908;-66
2022/12/12 06:47:29;;;;;;;;;;;0.00;99.90;;;;;;5094228;28;19951;-67
2022/12/12 06:49:55;;;;;;;;;;;0.00;99.90;;;;;;5093746;28;19958;-66
2022/12/12 06:52:20;;;;;;;;;;;0.00;99.90;;;;;;5093898;28;19908;-66
2022/12/12 06:54:46;;;;;;;;;;;0.00;99.90;;;;;;5093866;28;19916;-66
2022/12/12 06:57:11;;;;;;;;;;;0.00;99.90;;;;;;5093762;28;19927;-66
2022/12/12 06:59:37;;;;;;;;;;;0.00;99.90;;;;;;5097498;28;19912;-66
2022/12/12 07:02:02;;;;;;;;;;;0.00;99.90;;;;;;5087612;28;20365;-64
2022/12/12 07:04:28;;;;;;;;;;;0.00;99.90;;;;;;5093505;28;20293;-64
2022/12/12 07:06:54;;;;;;;;;;;0.00;99.90;;;;;;5093115;28;19912;-64
2022/12/12 07:09:19;;;;;;;;;;;0.00;99.90;;;;;;5087639;28;20003;-66
2022/12/12 07:11:45;;;;;;;;;;;0.00;99.90;;;;;;5089926;28;20468;-65
2022/12/12 07:14:10;;;;;;;;;;;0.10;99.90;;;;;;5090899;28;20305;-65
2022/12/12 07:16:36;;;;;;;;;;;0.00;99.90;;;;;;5077709;28;19942;-64
2022/12/12 07:19:02;;;;;;;;;;;0.00;99.90;;;;;;5074543;28;19919;-64
2022/12/12 07:21:27;;;;;;;;;;;0.00;99.90;;;;;;5073194;28;20433;-64
2022/12/12 07:23:54;;;;;;;;;;;0.00;99.90;;;;;;5090794;28;19912;-64
2022/12/12 07:26:21;;;;;;;;;;;0.00;99.90;;;;;;5092505;28;19934;-64
2022/12/12 07:28:47;;;;;;;;;;;0.00;99.90;;;;;;5089039;28;19937;-64
2022/12/12 07:31:14;;;;;;;;;;;0.00;99.90;;;;;;5093235;28;19919;-64
2022/12/12 07:33:40;;;;;;;;;;;0.00;99.90;;;;;;5092558;28;19923;-64
2022/12/12 07:36:06;;;;;;;;;;;0.10;99.90;;;;;;5089664;28;20474;-66
2022/12/12 07:38:31;;;;;;;;;;;0.00;99.90;;;;;;5092141;28;20200;-67
2022/12/12 07:41:01;;;;;;;;;;;0.10;99.90;;;;;;5079124;28;19920;-67
2022/12/12 07:43:27;;;;;;;;;;;0.10;99.90;;;;;;5085442;28;20006;-70
2022/12/12 07:45:53;;;;;;;;;;;0.20;99.90;;;;;;5072405;28;20003;-73
2022/12/12 07:48:18;;;;;;;;;;;0.20;99.90;;;;;;5080652;28;20011;-73
2022/12/12 07:50:44;;;;;;;;;;;0.20;99.90;;;;;;5071262;28;19981;-72
2022/12/12 07:53:09;;;;;;;;;;;0.20;99.90;;;;;;5092411;28;19919;-71
2022/12/12 07:55:38;;;;;;;;;;;0.20;99.90;;;;;;5068521;28;19916;-69
2022/12/12 07:58:03;;;;;;;;;;;0.20;99.90;;;;;;5085802;28;19919;-69
2022/12/12 08:00:29;;;;;;;;;;;0.20;99.90;;;;;;5072166;28;19912;-70
2022/12/12 08:02:54;;;;;;;;;;;0.20;99.90;;;;;;5087744;28;20373;-69
2022/12/12 08:05:20;;;;;;;;;;;0.20;99.90;;;;;;5094809;28;19912;-70
2022/12/12 08:07:46;;;;;;;;;;;0.20;99.90;;;;;;5095640;28;20014;-69
2022/12/12 08:10:11;;;;;;;;;;;0.20;99.90;;;;;;5091418;28;19912;-69
2022/12/12 08:12:37;;;;;;;;;;;0.20;99.90;;;;;;5103746;28;19916;-69
2022/12/12 08:15:02;;;;;;;;;;;0.20;99.90;;;;;;5096511;28;20010;-69
2022/12/12 08:17:28;;;;;;;;;;;0.30;99.90;;;;;;5094227;28;19912;-69
2022/12/12 08:19:53;;;;;;;;;;;0.20;99.90;;;;;;5096446;28;19966;-69
2022/12/12 08:22:19;;;;;;;;;;;0.30;99.90;;;;;;5101474;28;19918;-70
2022/12/12 08:24:44;;;;;;;;;;;0.30;99.90;;;;;;5093828;28;19955;-70
2022/12/12 08:27:10;;;;;;;;;;;0.30;99.90;;;;;;5097022;28;19912;-69
2022/12/12 08:29:35;;;;;;;;;;;0.30;99.90;;;;;;5086129;28;19919;-70
2022/12/12 08:32:01;;;;;;;;;;;0.30;99.90;;;;;;5080566;28;20381;-70
2022/12/12 08:34:26;;;;;;;;;;;0.30;99.90;;;;;;5094465;28;19918;-70
2022/12/12 08:36:53;;;;;;;;;;;0.30;99.90;;;;;;5075899;28;19909;-70
2022/12/12 08:39:19;;;;;;;;;;;0.30;99.90;;;;;;5095803;28;19920;-70
2022/12/12 08:41:46;;;;;;;;;;;0.30;99.90;;;;;;5089614;28;19957;-68
2022/12/12 08:44:12;;;;;;;;;;;0.40;99.90;;;;;;5094783;28;19919;-68
2022/12/12 08:46:38;;;;;;;;;;;0.40;99.90;;;;;;5094590;28;19913;-70
2022/12/12 08:49:04;;;;;;;;;;;0.40;99.90;;;;;;5096468;28;19919;-65
2022/12/12 08:51:29;;;;;;;;;;;0.50;99.90;;;;;;5087977;28;19951;-65
2022/12/12 08:53:55;;;;;;;;;;;0.50;99.90;;;;;;5095673;28;19916;-65
2022/12/12 08:56:21;;;;;;;;;;;0.50;99.90;;;;;;5092655;28;20274;-65
2022/12/12 08:58:47;;;;;;;;;;;0.50;99.90;;;;;;5087978;28;19957;-65
2022/12/12 09:01:14;;;;;;;;;;;0.50;99.90;;;;;;5103618;28;20258;-65
2022/12/12 09:03:39;;;;;;;;;;;0.50;99.90;;;;;;5093116;28;19912;-66
2022/12/12 09:06:06;;;;;;;;;;;0.50;99.90;;;;;;5094055;28;19923;-65
2022/12/12 09:08:32;;;;;;;;;;;0.60;99.90;;;;;;5092956;28;19923;-66
2022/12/12 09:10:58;;;;;;;;;;;0.60;99.90;;;;;;5095061;28;20026;-65
2022/12/12 09:13:24;;;;;;;;;;;0.60;99.90;;;;;;5092956;28;19931;-68
2022/12/12 09:15:50;;;;;;;;;;;0.60;99.90;;;;;;5083317;28;19948;-65
2022/12/12 09:18:15;;;;;;;;;;;0.60;99.90;;;;;;5088168;28;19915;-65
2022/12/12 09:20:41;;;;;;;;;;;0.60;99.90;;;;;;5090024;28;19912;-67
2022/12/12 09:23:06;;;;;;;;;;;0.70;99.90;;;;;;5078016;28;19912;-65
2022/12/12 09:25:32;;;;;;;;;;;0.70;99.90;;;;;;5092198;28;19908;-66
2022/12/12 09:27:57;;;;;;;;;;;0.70;99.90;;;;;;5081611;28;20048;-65
2022/12/12 09:30:23;;;;;;;;;;;0.70;99.90;;;;;;5080375;28;19915;-65
2022/12/12 09:32:48;;;;;;;;;;;0.70;99.90;;;;;;5081870;28;19927;-65
2022/12/12 09:35:14;;;;;;;;;;;0.70;99.90;;;;;;5094565;28;20026;-65
2022/12/12 09:37:40;;;;;;;;;;;0.80;99.90;;;;;;5090204;28;19909;-66
2022/12/12 09:40:06;;;;;;;;;;;0.80;99.90;;;;;;5094540;28;20014;-65
2022/12/12 09:42:32;;;;;;;;;;;0.80;99.90;;;;;;5094165;28;20501;-66
2022/12/12 09:45:01;;;;;;;;;;;0.90;99.90;;;;;;5094244;28;19934;-65
2022/12/12 09:47:46;;;;;;;;;;;0.90;99.90;;;;;;5107662;28;20346;-65
2022/12/12 09:50:16;;;;;;;;;;;0.90;99.90;;;;;;5094113;28;19919;-65
2022/12/12 09:52:42;;;;;;;;;;;1.00;99.90;;;;;;5094052;28;19909;-65
2022/12/12 09:55:27;;;;;;;;;;;1.10;99.90;;;;;;5081102;28;19962;-67
2022/12/12 09:58:13;;;;;;;;;;;1.20;99.90;;;;;;5087656;28;20002;-65
2022/12/12 10:00:41;;;;;;;;;;;1.20;99.90;;;;;;5085544;28;19916;-64
2022/12/12 10:03:26;;;;;;;;;;;1.40;99.90;;;;;;5092387;28;19965;-65
2022/12/12 10:05:57;;;;;;;;;;;1.40;99.90;;;;;;5091300;28;19927;-65
2022/12/12 10:08:42;;;;;;;;;;;1.50;99.90;;;;;;5097413;28;19908;-65
2022/12/12 10:11:48;;;;;;;;;;;1.50;99.90;;;;;;5088525;28;19984;-65
2022/12/12 10:13:57;;;;;;;;;;;1.60;99.90;;;;;;5089329;28;20011;-65
2022/12/12 10:16:24;;;;;;;;;;;1.50;99.90;;;;;;5096973;28;19912;-64
2022/12/12 10:18:51;;;;;;;;;;;1.50;99.90;;;;;;5088031;28;20022;-64
2022/12/12 10:21:18;;;;;;;;;;;1.50;99.90;;;;;;5092104;28;19916;-65
2022/12/12 10:24:01;;;;;;;;;;;1.40;99.90;;;;;;5092590;28;20346;-65
2022/12/12 10:26:28;;;;;;;;;;;1.40;99.90;;;;;;5090286;28;19912;-65
2022/12/12 10:28:56;;;;;;;;;;;1.30;99.90;;;;;;5095604;28;19918;-65
2022/12/12 10:31:31;;;;;;;;;;;1.30;99.90;;;;;;5094208;28;19956;-65
2022/12/12 10:34:16;;;;;;;;;;;1.30;99.90;;;;;;5092338;28;20354;-65
2022/12/12 10:36:54;;;;;;;;;;;1.20;99.90;;;;;;5094352;28;20302;-65
2022/12/12 10:39:26;;;;;;;;;;;1.20;99.90;;;;;;5103940;28;20353;-65
2022/12/12 10:41:58;;;;;;;;;;;1.20;99.90;;;;;;5095331;28;20437;-65
2022/12/12 10:44:33;;;;;;;;;;;1.20;99.90;;;;;;5104750;28;20057;-67
2022/12/12 10:47:09;;;;;;;;;;;1.10;99.90;;;;;;5099224;28;19916;-65
2022/12/12 10:49:35;;;;;;;;;;;1.20;99.90;;;;;;5092073;28;19976;-65
2022/12/12 10:52:02;;;;;;;;;;;1.10;99.90;;;;;;5094962;28;20349;-66
2022/12/12 10:54:30;;;;;;;;;;;1.10;99.90;;;;;;5092133;28;19976;-65
2022/12/12 10:57:06;;;;;;;;;;;1.10;99.90;;;;;;5099556;28;19935;-65
2022/12/12 10:59:37;;;;;;;;;;;1.10;99.90;;;;;;5087652;28;20003;-66
2022/12/12 11:02:03;;;;;;;;;;;1.10;99.90;;;;;;5089517;28;19916;-65
2022/12/12 11:04:30;;;;;;;;;;;1.10;99.90;;;;;;5092708;28;19961;-65
2022/12/12 11:06:56;;;;;;;;;;;1.10;99.90;;;;;;5091660;28;19912;-65
2022/12/12 11:09:26;;;;;;;;;;;1.00;99.90;;;;;;5094070;28;19920;-65
2022/12/12 11:12:00;;;;;;;;;;;1.00;99.90;;;;;;5087270;28;19940;-65
2022/12/12 11:14:30;;;;;;;;;;;1.10;99.90;;;;;;5088095;28;20381;-65
2022/12/12 11:16:55;;;;;;;;;;;1.10;99.90;;;;;;5085476;28;19911;-66
2022/12/12 11:19:22;;;;;;;;;;;1.20;99.90;;;;;;5109564;28;19908;-66
2022/12/12 11:21:48;;;;;;;;;;;1.30;99.90;;;;;;5091501;28;19966;-66
2022/12/12 11:24:17;;;;;;;;;;;1.20;99.90;;;;;;5096506;28;19959;-66
2022/12/12 11:26:48;;;;;;;;;;;1.20;99.90;;;;;;5099128;28;20428;-66
2022/12/12 11:29:24;;;;;;;;;;;1.30;99.90;;;;;;5097108;28;19963;-66
2022/12/12 11:31:49;;;;;;;;;;;1.40;99.90;;;;;;5076957;28;19912;-66
2022/12/12 11:34:15;;;;;;;;;;;1.40;99.90;;;;;;5092136;28;19920;-66
2022/12/12 11:36:41;;;;;;;;;;;1.40;99.90;;;;;;5094473;28;19920;-66
2022/12/12 11:39:23;;;;;;;;;;;1.40;99.90;;;;;;5087763;28;19912;-66
2022/12/12 11:42:08;;;;;;;;;;;1.40;99.90;;;;;;5089918;28;19919;-66
2022/12/12 11:44:35;;;;;;;;;;;1.40;99.90;;;;;;5092901;28;19955;-66
2022/12/12 11:47:20;;;;;;;;;;;1.40;99.90;;;;;;5089756;28;19912;-66
2022/12/12 11:49:47;;;;;;;;;;;1.40;99.90;;;;;;5092260;28;19912;-66
2022/12/12 11:52:17;;;;;;;;;;;1.40;99.90;;;;;;5094971;28;19968;-66
2022/12/12 11:54:43;;;;;;;;;;;1.40;99.90;;;;;;5102490;28;19916;-66
2022/12/12 11:57:17;;;;;;;;;;;1.30;99.90;;;;;;5094691;28;19997;-66
2022/12/12 12:00:04;;;;;;;;;;;1.30;99.90;;;;;;5087121;28;19913;-66
2022/12/12 12:02:49;;;;;;;;;;;1.40;99.90;;;;;;5095806;28;19923;-66
2022/12/12 12:05:34;;;;;;;;;;;1.40;99.90;;;;;;5087748;28;19913;-66
2022/12/12 12:08:13;;;;;;;;;;;1.40;99.90;;;;;;5097078;28;20014;-66
2022/12/12 12:10:58;;;;;;;;;;;1.40;99.90;;;;;;5093477;28;19912;-66
2022/12/12 12:13:34;;;;;;;;;;;1.40;99.90;;;;;;5083042;28;19956;-66
2022/12/12 12:16:05;;;;;;;;;;;1.50;99.90;;;;;;5067004;28;19916;-66
2022/12/12 12:18:50;;;;;;;;;;;1.50;99.90;;;;;;5083491;28;19961;-67
2022/12/12 12:21:35;;;;;;;;;;;1.60;99.90;;;;;;5089623;28;19913;-67
2022/12/12 12:24:15;;;;;;;;;;;1.60;99.90;;;;;;5085734;28;19927;-71
2022/12/12 12:26:56;;;;;;;;;;;1.50;99.90;;;;;;5091039;28;19908;-65
2022/12/12 12:29:37;;;;;;;;;;;1.60;99.90;;;;;;5092410;28;20354;-68
2022/12/12 12:32:16;;;;;;;;;;;1.60;99.90;;;;;;5090905;28;20181;-66
2022/12/12 12:34:50;;;;;;;;;;;1.60;99.90;;;;;;5088088;28;20389;-67
2022/12/12 12:37:22;;;;;;;;;;;1.60;99.90;;;;;;5073041;28;19916;-73
2022/12/12 12:40:08;;;;;;;;;;;1.60;99.90;;;;;;5089945;28;20294;-69
2022/12/12 12:45:31;;;;;;;;;;;1.60;99.90;;;;;;5083654;27;19916;-68
2022/12/12 12:47:59;;;;;;;;;;;1.70;99.90;;;;;;5074583;28;19919;-65
2022/12/12 12:50:31;;;;;;;;;;;1.80;99.90;;;;;;5068187;28;19999;-67
2022/12/12 12:53:06;;;;;;;;;;;1.80;99.90;;;;;;5071049;28;19916;-67
2022/12/12 12:55:39;;;;;;;;;;;1.80;99.90;;;;;;5069147;28;19919;-68
2022/12/12 12:58:05;;;;;;;;;;;1.80;99.90;;;;;;5074258;28;19913;-67
2022/12/12 13:00:30;;;;;;;;;;;1.80;99.90;;;;;;5069041;28;20023;-68
2022/12/12 13:02:59;;;;;;;;;;;1.80;99.90;;;;;;5075768;28;19923;-68
2022/12/12 13:05:31;;;;;;;;;;;1.80;99.90;;;;;;5068410;28;19959;-69
2022/12/12 13:08:04;;;;;;;;;;;1.80;99.90;;;;;;5077283;28;20448;-68
2022/12/12 13:10:30;;;;;;;;;;;1.70;99.90;;;;;;5068921;28;19913;-69
2022/12/12 13:13:16;;;;;;;;;;;1.70;99.90;;;;;;5068657;28;19913;-68
2022/12/12 13:15:45;;;;;;;;;;;1.60;99.90;;;;;;5086058;28;19913;-68
2022/12/12 13:18:12;;;;;;;;;;;1.60;99.90;;;;;;5064009;28;19998;-69
2022/12/12 13:20:43;;;;;;;;;;;1.70;99.90;;;;;;5069119;28;19920;-68
2022/12/12 13:23:16;;;;;;;;;;;1.70;99.90;;;;;;5068518;28;20370;-68
2022/12/12 13:25:49;;;;;;;;;;;1.80;99.90;;;;;;5069962;28;19934;-68
2022/12/12 13:28:18;;;;;;;;;;;1.70;99.90;;;;;;5067617;28;20043;-68
2022/12/12 13:30:54;;;;;;;;;;;1.80;99.90;;;;;;5074748;28;19920;-68
2022/12/12 13:33:38;;;;;;;;;;;1.70;99.90;;;;;;5064164;28;19912;-68
2022/12/12 13:36:09;;;;;;;;;;;1.60;99.90;;;;;;5056549;28;19913;-66
2022/12/12 13:38:35;;;;;;;;;;;1.60;99.90;;;;;;5062826;28;19955;-67
2022/12/12 13:41:02;;;;;;;;;;;1.60;99.90;;;;;;5058577;28;19913;-67
2022/12/12 13:43:39;;;;;;;;;;;1.50;99.90;;;;;;5081769;28;19924;-66
2022/12/12 13:46:26;;;;;;;;;;;1.50;99.90;;;;;;5092671;28;19920;-67
2022/12/12 13:49:11;;;;;;;;;;;1.50;99.90;;;;;;5089207;28;20381;-68
2022/12/12 13:51:38;;;;;;;;;;;1.50;99.90;;;;;;5084907;28;19916;-68
2022/12/12 13:56:44;;;;;;;;;;;1.40;99.90;;;;;;5068480;27;19923;-63
2022/12/12 14:02:23;;;;;;;;;;;1.40;99.90;;;;;;5089295;27;20301;-65
2022/12/12 14:05:05;;;;;;;;;;;1.40;99.90;;;;;;5080672;28;19944;-65
2022/12/12 14:07:31;;;;;;;;;;;1.40;99.90;;;;;;5065059;28;19913;-65
2022/12/12 14:10:15;;;;;;;;;;;1.30;99.90;;;;;;5069242;28;19919;-65
2022/12/12 14:12:41;;;;;;;;;;;1.30;99.90;;;;;;5069424;28;19935;-65
2022/12/12 14:15:17;;;;;;;;;;;1.30;99.90;;;;;;5067960;28;19913;-65
2022/12/12 14:17:49;;;;;;;;;;;1.40;99.90;;;;;;5065502;28;20413;-64
2022/12/12 14:20:25;;;;;;;;;;;1.30;99.90;;;;;;5051340;28;19913;-64
2022/12/12 14:22:53;;;;;;;;;;;1.30;99.90;;;;;;5068301;28;19920;-64
2022/12/12 14:25:27;;;;;;;;;;;1.30;99.90;;;;;;5069824;28;19916;-65
2022/12/12 14:28:03;;;;;;;;;;;1.30;99.90;;;;;;5066596;28;19975;-64
2022/12/12 14:30:48;;;;;;;;;;;1.30;99.90;;;;;;5052347;28;19955;-64
2022/12/12 14:33:17;;;;;;;;;;;1.30;99.90;;;;;;5067621;28;19924;-64
2022/12/12 14:36:03;;;;;;;;;;;1.30;99.90;;;;;;5065888;28;20475;-64
2022/12/12 14:38:36;;;;;;;;;;;1.30;99.90;;;;;;5100988;28;20004;-66
2022/12/12 14:41:04;;;;;;;;;;;1.30;99.90;;;;;;5064640;28;20358;-64
2022/12/12 14:43:34;;;;;;;;;;;1.30;99.90;;;;;;5069036;28;19920;-65
2022/12/12 14:46:00;;;;;;;;;;;1.30;99.90;;;;;;5068671;28;19919;-66
2022/12/12 14:48:29;;;;;;;;;;;1.30;99.90;;;;;;5069135;28;20019;-64
2022/12/12 14:51:14;;;;;;;;;;;1.30;99.90;;;;;;5074612;28;20019;-65
2022/12/12 14:53:48;;;;;;;;;;;1.20;99.90;;;;;;5048793;28;20367;-62
2022/12/12 14:56:16;;;;;;;;;;;1.20;99.90;;;;;;5068241;28;20292;-62
2022/12/12 14:58:44;;;;;;;;;;;1.20;99.90;;;;;;5068000;28;19913;-63
2022/12/12 15:01:10;;;;;;;;;;;1.20;99.90;;;;;;5080726;28;19928;-65
2022/12/12 15:03:41;;;;;;;;;;;1.10;99.90;;;;;;5086918;28;19912;-63
2022/12/12 15:06:17;;;;;;;;;;;1.10;99.90;;;;;;5088332;28;19913;-62
2022/12/12 15:08:43;;;;;;;;;;;1.10;99.90;;;;;;5087778;28;19944;-65
2022/12/12 15:11:17;;;;;;;;;;;1.00;99.90;;;;;;5086838;28;19950;-65